createdAt,value
2022-10-18T00:01:02.650Z,10.15
2022-10-18T00:03:30.791Z,10.10
2022-10-18T00:05:59.329Z,10.01
2022-10-18T00:08:27.362Z,9.92
2022-10-18T00:10:55.330Z,9.87
2022-10-18T00:13:23.300Z,9.83
2022-10-18T00:15:52.216Z,9.81
2022-10-18T00:18:20.036Z,9.79
2022-10-18T00:21:00.665Z,9.79
2022-10-18T00:23:29.538Z,9.78
2022-10-18T00:26:04.278Z,9.78
2022-10-18T00:28:33.748Z,9.79
2022-10-18T00:31:18.781Z,9.78
2022-10-18T00:33:49.820Z,9.76
2022-10-18T00:36:17.804Z,9.70
2022-10-18T00:38:46.277Z,9.63
2022-10-18T00:41:16.997Z,9.57
2022-10-18T00:44:11.176Z,9.47
2022-10-18T00:46:41.171Z,9.44
2022-10-18T00:49:17.419Z,9.44
2022-10-18T00:51:48.430Z,9.45
2022-10-18T00:54:17.795Z,9.48
2022-10-18T00:56:46.017Z,9.52
2022-10-18T00:59:16.170Z,9.55
2022-10-18T01:01:44.770Z,9.56
2022-10-18T01:04:14.723Z,9.60
2022-10-18T01:09:40.004Z,9.58
2022-10-18T01:12:34.552Z,9.53
2022-10-18T01:15:15.346Z,9.49
2022-10-18T01:18:09.934Z,9.43
2022-10-18T01:20:58.793Z,9.35
2022-10-18T01:23:26.321Z,9.27
2022-10-18T01:26:10.591Z,9.20
2022-10-18T01:28:50.544Z,9.12
2022-10-18T01:31:33.654Z,9.06
2022-10-18T01:34:05.888Z,9.00
2022-10-18T01:36:37.885Z,8.96
2022-10-18T01:39:12.107Z,8.89
2022-10-18T01:41:43.380Z,8.83
2022-10-18T01:44:16.141Z,8.79
2022-10-18T01:46:44.918Z,8.76
2022-10-18T01:49:12.540Z,8.73
2022-10-18T01:51:40.067Z,8.76
2022-10-18T01:54:07.691Z,8.86
2022-10-18T01:57:02.557Z,8.92
2022-10-18T02:00:20.832Z,8.93
2022-10-18T02:03:01.617Z,8.95
2022-10-18T02:05:34.992Z,8.92
2022-10-18T02:08:24.416Z,8.89
2022-10-18T02:11:00.891Z,8.86
2022-10-18T02:13:33.495Z,8.80
2022-10-18T02:16:08.036Z,8.77
2022-10-18T02:18:47.024Z,8.72
2022-10-18T02:21:17.580Z,8.69
2022-10-18T02:23:46.891Z,8.69
2022-10-18T02:26:15.962Z,8.70
2022-10-18T02:28:44.038Z,8.68
2022-10-18T02:31:43.412Z,8.63
2022-10-18T02:34:30.540Z,8.61
2022-10-18T02:37:02.157Z,8.59
2022-10-18T02:39:31.411Z,8.56
2022-10-18T02:41:59.788Z,8.50
2022-10-18T02:44:27.541Z,8.46
2022-10-18T02:46:55.651Z,8.43
2022-10-18T02:49:23.121Z,8.42
2022-10-18T02:51:50.594Z,8.38
2022-10-18T02:54:18.074Z,8.34
2022-10-18T02:56:45.569Z,8.31
2022-10-18T02:59:13.248Z,8.29
2022-10-18T03:01:41.095Z,8.27
2022-10-18T03:04:08.940Z,8.22
2022-10-18T03:06:36.522Z,8.21
2022-10-18T03:09:05.859Z,8.16
2022-10-18T03:11:33.702Z,8.12
2022-10-18T03:14:01.217Z,8.09
2022-10-18T03:16:28.848Z,8.09
2022-10-18T03:18:56.471Z,8.04
2022-10-18T03:21:24.020Z,8.00
2022-10-18T03:23:51.484Z,7.98
2022-10-18T03:26:18.959Z,7.98
2022-10-18T03:28:46.489Z,7.97
2022-10-18T03:31:14.065Z,7.97
2022-10-18T03:33:41.580Z,7.92
2022-10-18T03:36:09.602Z,7.87
2022-10-18T03:38:37.218Z,7.83
2022-10-18T03:41:04.835Z,7.80
2022-10-18T03:43:32.618Z,7.77
2022-10-18T03:46:00.540Z,7.77
2022-10-18T03:48:28.065Z,7.78
2022-10-18T03:50:55.905Z,7.73
2022-10-18T03:53:23.368Z,7.69
2022-10-18T03:55:55.352Z,7.70
2022-10-18T03:58:23.408Z,7.74
2022-10-18T04:00:52.148Z,7.79
2022-10-18T04:03:21.396Z,7.80
2022-10-18T04:05:49.561Z,7.77
2022-10-18T04:08:18.114Z,7.73
2022-10-18T04:10:47.216Z,7.72
2022-10-18T04:13:14.969Z,7.68
2022-10-18T04:15:43.357Z,7.67
2022-10-18T04:18:10.902Z,7.68
2022-10-18T04:20:38.497Z,7.67
2022-10-18T04:23:05.991Z,7.64
2022-10-18T04:25:33.584Z,7.60
2022-10-18T04:28:01.209Z,7.57
2022-10-18T04:30:28.721Z,7.52
2022-10-18T04:32:56.225Z,7.48
2022-10-18T04:35:26.039Z,7.45
2022-10-18T04:37:53.730Z,7.41
2022-10-18T04:40:21.913Z,7.35
2022-10-18T04:42:49.395Z,7.32
2022-10-18T04:45:16.919Z,7.29
2022-10-18T04:47:44.435Z,7.26
2022-10-18T04:50:11.917Z,7.25
2022-10-18T04:52:39.526Z,7.25
2022-10-18T04:55:07.416Z,7.27
2022-10-18T04:57:34.979Z,7.28
2022-10-18T05:00:02.717Z,7.28
2022-10-18T05:02:30.707Z,7.26
2022-10-18T05:04:58.617Z,7.24
2022-10-18T05:07:26.101Z,7.23
2022-10-18T05:09:53.567Z,7.20
2022-10-18T05:12:22.303Z,7.20
2022-10-18T05:14:49.751Z,7.17
2022-10-18T05:17:17.280Z,7.16
2022-10-18T05:19:44.750Z,7.15
2022-10-18T05:22:12.379Z,7.13
2022-10-18T05:24:39.868Z,7.10
2022-10-18T05:27:07.363Z,7.06
2022-10-18T05:29:34.849Z,7.03
2022-10-18T05:32:02.423Z,7.02
2022-10-18T05:34:32.096Z,6.99
2022-10-18T05:37:00.203Z,6.97
2022-10-18T05:39:27.797Z,6.97
2022-10-18T05:41:55.343Z,6.94
2022-10-18T05:44:22.839Z,6.91
2022-10-18T05:46:50.442Z,6.89
2022-10-18T05:49:18.059Z,6.87
2022-10-18T05:51:45.564Z,6.85
2022-10-18T05:54:13.363Z,6.84
2022-10-18T05:56:41.290Z,6.83
2022-10-18T05:59:12.267Z,6.78
2022-10-18T06:01:41.831Z,6.76
2022-10-18T06:04:10.459Z,6.75
2022-10-18T06:06:39.069Z,6.73
2022-10-18T06:09:07.848Z,6.70
2022-10-18T06:11:37.019Z,6.69
2022-10-18T06:14:05.268Z,6.70
2022-10-18T06:16:33.032Z,6.70
2022-10-18T06:19:00.672Z,6.71
2022-10-18T06:21:28.321Z,6.68
2022-10-18T06:23:58.187Z,6.68
2022-10-18T06:26:27.543Z,6.67
2022-10-18T06:28:55.368Z,6.67
2022-10-18T06:31:23.018Z,6.66
2022-10-18T06:33:50.678Z,6.66
2022-10-18T06:36:22.277Z,6.65
2022-10-18T06:38:50.930Z,6.66
2022-10-18T06:41:19.615Z,6.69
2022-10-18T06:43:51.441Z,6.71
2022-10-18T06:46:19.931Z,6.76
2022-10-18T06:48:47.433Z,6.82
2022-10-18T06:51:15.625Z,6.90
2022-10-18T06:53:53.462Z,6.91
2022-10-18T06:56:30.907Z,6.84
2022-10-18T07:01:30.990Z,6.86
2022-10-18T07:03:58.551Z,6.88
2022-10-18T07:06:26.134Z,6.90
2022-10-18T07:08:54.307Z,6.90
2022-10-18T07:11:25.149Z,6.92
2022-10-18T07:13:54.614Z,6.92
2022-10-18T07:16:22.310Z,6.93
2022-10-18T07:18:51.486Z,6.92
2022-10-18T07:21:22.217Z,6.92
2022-10-18T07:23:50.855Z,6.96
2022-10-18T07:26:21.930Z,7.05
2022-10-18T07:28:54.297Z,7.09
2022-10-18T07:31:22.975Z,7.11
2022-10-18T07:33:50.830Z,7.16
2022-10-18T07:36:18.524Z,7.17
2022-10-18T07:38:46.023Z,7.19
2022-10-18T07:41:14.740Z,7.22
2022-10-18T07:43:48.096Z,7.25
2022-10-18T07:46:18.189Z,7.26
2022-10-18T07:48:45.984Z,7.30
2022-10-18T07:51:13.835Z,7.37
2022-10-18T07:53:41.415Z,7.49
2022-10-18T07:56:11.974Z,7.62
2022-10-18T07:58:39.933Z,7.73
2022-10-18T08:01:08.973Z,7.82
2022-10-18T08:03:37.682Z,7.86
2022-10-18T08:06:09.227Z,7.92
2022-10-18T08:08:38.928Z,8.03
2022-10-18T08:11:09.567Z,8.13
2022-10-18T08:13:37.219Z,8.19
2022-10-18T08:16:11.414Z,8.26
2022-10-18T08:18:39.647Z,8.34
2022-10-18T08:21:13.375Z,8.49
2022-10-18T08:23:41.471Z,8.61
2022-10-18T08:26:11.913Z,8.72
2022-10-18T08:28:40.427Z,9.19
2022-10-18T08:31:13.384Z,9.86
2022-10-18T08:33:41.092Z,10.56
2022-10-18T08:36:11.751Z,11.11
2022-10-18T08:38:41.361Z,11.63
2022-10-18T08:41:30.124Z,12.15
2022-10-18T08:44:07.450Z,12.15
2022-10-18T08:46:37.316Z,11.91
2022-10-18T08:49:07.295Z,11.60
2022-10-18T08:51:46.746Z,11.27
2022-10-18T08:54:22.479Z,11.02
2022-10-18T08:57:02.019Z,10.83
2022-10-18T08:59:39.017Z,10.71
2022-10-18T09:02:15.672Z,10.59
2022-10-18T09:05:01.234Z,10.55
2022-10-18T09:08:00.155Z,10.52
2022-10-18T09:10:42.885Z,10.44
2022-10-18T09:13:16.150Z,10.40
2022-10-18T09:15:52.668Z,10.41
2022-10-18T09:18:40.707Z,10.43
2022-10-18T09:21:27.107Z,10.45
2022-10-18T09:24:13.457Z,10.51
2022-10-18T09:26:49.969Z,10.56
2022-10-18T09:29:26.765Z,10.65
2022-10-18T09:32:45.189Z,10.73
2022-10-18T09:35:15.107Z,10.81
2022-10-18T09:37:44.101Z,10.89
2022-10-18T09:40:23.546Z,11.00
2022-10-18T09:42:51.042Z,11.39
2022-10-18T09:45:34.775Z,12.49
2022-10-18T09:48:23.861Z,13.96
2022-10-18T09:51:02.813Z,15.19
2022-10-18T09:53:32.978Z,16.22
2022-10-18T09:56:19.112Z,17.25
2022-10-18T09:58:49.377Z,18.19
2022-10-18T10:01:22.107Z,18.96
2022-10-18T10:03:49.641Z,19.61
2022-10-18T10:06:18.404Z,20.18
2022-10-18T10:08:54.470Z,20.73
2022-10-18T10:11:46.263Z,21.21
2022-10-18T10:14:21.652Z,21.64
2022-10-18T10:16:50.898Z,22.12
2022-10-18T10:19:25.278Z,22.58
2022-10-18T10:21:57.175Z,22.83
2022-10-18T10:24:35.679Z,23.14
2022-10-18T10:27:14.911Z,23.42
2022-10-18T10:29:45.579Z,23.54
2022-10-18T10:32:15.812Z,23.66
2022-10-18T10:34:44.966Z,23.99
2022-10-18T10:37:32.504Z,24.18
2022-10-18T10:40:31.682Z,24.19
2022-10-18T10:43:12.912Z,24.30
2022-10-18T10:46:02.400Z,24.48
2022-10-18T10:48:40.923Z,24.66
2022-10-18T10:51:10.624Z,24.65
2022-10-18T10:53:46.278Z,24.72
2022-10-18T10:56:38.943Z,24.54
2022-10-18T10:59:20.136Z,24.54
2022-10-18T11:01:50.241Z,24.49
2022-10-18T11:04:29.748Z,24.41
2022-10-18T11:06:57.215Z,24.44
2022-10-18T11:09:31.277Z,24.38
2022-10-18T11:12:18.518Z,24.32
2022-10-18T11:14:56.025Z,24.33
2022-10-18T11:17:40.632Z,24.25
2022-10-18T11:20:09.978Z,24.25
2022-10-18T11:22:51.988Z,24.12
2022-10-18T11:25:25.332Z,24.21
2022-10-18T11:28:01.942Z,24.48
2022-10-18T11:30:43.481Z,24.57
2022-10-18T11:33:10.938Z,24.56
2022-10-18T11:35:48.099Z,24.09
2022-10-18T11:38:45.127Z,23.86
2022-10-18T11:41:12.606Z,23.84
2022-10-18T11:44:01.145Z,24.05
2022-10-18T11:46:48.687Z,24.21
2022-10-18T11:49:32.406Z,24.27
2022-10-18T11:52:13.919Z,24.19
2022-10-18T11:55:12.128Z,24.41
2022-10-18T11:58:13.424Z,24.45
2022-10-18T12:01:07.474Z,24.57
2022-10-18T12:04:02.053Z,24.46
2022-10-18T12:06:41.401Z,24.45
2022-10-18T12:09:28.878Z,24.44
2022-10-18T12:12:22.482Z,24.46
2022-10-18T12:14:55.695Z,24.49
2022-10-18T12:17:47.533Z,24.25
2022-10-18T12:20:31.784Z,23.79
2022-10-18T12:22:59.178Z,23.46
2022-10-18T12:25:30.198Z,23.36
2022-10-18T12:28:02.571Z,23.26
2022-10-18T12:31:04.398Z,23.07
2022-10-18T12:33:39.602Z,22.76
2022-10-18T12:36:19.004Z,22.43
2022-10-18T12:38:51.981Z,22.32
2022-10-18T12:41:27.407Z,22.09
2022-10-18T12:44:04.534Z,21.74
2022-10-18T12:46:49.164Z,21.68
2022-10-18T12:49:24.191Z,21.52
2022-10-18T12:51:54.302Z,21.16
2022-10-18T12:54:32.637Z,20.97
2022-10-18T12:57:02.032Z,20.94
2022-10-18T12:59:29.563Z,20.94
2022-10-18T13:01:57.077Z,20.84
2022-10-18T13:04:27.347Z,20.96
2022-10-18T13:07:00.780Z,21.35
2022-10-18T13:09:29.422Z,21.62
2022-10-18T13:12:15.106Z,21.70
2022-10-18T13:15:05.723Z,21.68
2022-10-18T13:17:48.928Z,21.63
2022-10-18T13:20:39.518Z,21.20
2022-10-18T13:23:41.990Z,20.63
2022-10-18T13:26:41.702Z,20.14
2022-10-18T13:29:37.532Z,19.83
2022-10-18T13:32:08.189Z,19.66
2022-10-18T13:34:39.168Z,19.68
2022-10-18T13:37:20.755Z,19.79
2022-10-18T13:39:48.493Z,19.84
2022-10-18T13:42:15.908Z,19.80
2022-10-18T13:44:44.818Z,19.83
2022-10-18T13:47:14.973Z,19.65
2022-10-18T13:49:58.485Z,19.43
2022-10-18T13:53:08.252Z,19.14
2022-10-18T13:55:55.834Z,18.98
2022-10-18T13:59:05.669Z,19.01
2022-10-18T14:01:47.459Z,18.96
2022-10-18T14:04:39.931Z,19.08
2022-10-18T14:07:09.009Z,19.05
2022-10-18T14:09:56.125Z,19.04
2022-10-18T14:12:46.005Z,19.12
2022-10-18T14:15:27.690Z,18.74
2022-10-18T14:18:04.937Z,18.08
2022-10-18T14:20:49.429Z,17.56
2022-10-18T14:23:48.031Z,17.03
2022-10-18T14:26:17.973Z,16.82
2022-10-18T14:28:59.668Z,16.73
2022-10-18T14:31:28.567Z,16.54
2022-10-18T14:33:59.013Z,16.45
2022-10-18T14:36:34.638Z,16.46
2022-10-18T14:39:05.166Z,16.25
2022-10-18T14:41:34.999Z,16.06
2022-10-18T14:44:11.478Z,15.92
2022-10-18T14:46:44.434Z,15.76
2022-10-18T14:49:13.674Z,15.60
2022-10-18T14:51:43.823Z,15.48
2022-10-18T14:54:16.186Z,15.39
2022-10-18T14:56:45.016Z,15.27
2022-10-18T14:59:22.563Z,15.22
2022-10-18T15:01:56.867Z,15.18
2022-10-18T15:04:32.742Z,15.15
2022-10-18T15:07:05.471Z,15.03
2022-10-18T15:09:36.099Z,14.95
2022-10-18T15:12:05.963Z,14.78
2022-10-18T15:14:35.262Z,14.68
2022-10-18T15:17:24.546Z,14.61
2022-10-18T15:20:06.186Z,14.56
2022-10-18T15:22:34.238Z,14.56
2022-10-18T15:25:12.724Z,14.48
2022-10-18T15:27:46.350Z,14.38
2022-10-18T15:30:22.860Z,14.31
2022-10-18T15:32:56.834Z,14.26
2022-10-18T15:35:34.755Z,14.22
2022-10-18T15:38:13.594Z,14.18
2022-10-18T15:40:41.832Z,14.18
2022-10-18T15:43:24.796Z,14.16
2022-10-18T15:45:53.898Z,14.16
2022-10-18T15:48:23.483Z,14.22
2022-10-18T15:51:04.889Z,14.22
2022-10-18T15:53:51.522Z,14.14
2022-10-18T15:56:36.941Z,14.06
2022-10-18T15:59:21.600Z,13.98
2022-10-18T16:01:49.344Z,13.86
2022-10-18T16:04:29.450Z,13.73
2022-10-18T16:06:58.558Z,13.60
2022-10-18T16:09:28.096Z,13.52
2022-10-18T16:11:57.461Z,13.44
2022-10-18T16:14:26.453Z,13.36
2022-10-18T16:16:56.580Z,13.30
2022-10-18T16:19:24.401Z,13.25
2022-10-18T16:21:54.199Z,13.24
2022-10-18T16:24:22.145Z,13.20
2022-10-18T16:26:50.491Z,13.16
2022-10-18T16:29:31.969Z,13.10
2022-10-18T16:32:00.091Z,13.06
2022-10-18T16:34:27.721Z,12.97
2022-10-18T16:36:55.676Z,12.90
2022-10-18T16:39:23.582Z,12.85
2022-10-18T16:41:51.703Z,12.79
2022-10-18T16:44:19.349Z,12.74
2022-10-18T16:46:50.983Z,12.70
2022-10-18T16:49:24.659Z,12.64
2022-10-18T16:51:53.733Z,12.60
2022-10-18T16:54:21.732Z,12.57
2022-10-18T16:56:50.286Z,12.54
2022-10-18T16:59:25.911Z,12.49
2022-10-18T17:01:53.603Z,12.44
2022-10-18T17:04:21.235Z,12.39
2022-10-18T17:06:51.453Z,12.36
2022-10-18T17:09:19.073Z,12.33
2022-10-18T17:11:46.569Z,12.30
2022-10-18T17:14:14.060Z,12.30
2022-10-18T17:16:44.452Z,12.29
2022-10-18T17:19:14.949Z,12.27
2022-10-18T17:21:42.571Z,12.23
2022-10-18T17:24:10.277Z,12.16
2022-10-18T17:26:37.753Z,12.10
2022-10-18T17:29:08.596Z,12.06
2022-10-18T17:31:36.239Z,12.03
2022-10-18T17:34:03.989Z,11.99
2022-10-18T17:36:33.456Z,11.96
2022-10-18T17:39:01.163Z,11.91
2022-10-18T17:41:28.796Z,11.90
2022-10-18T17:43:56.640Z,11.86
2022-10-18T17:46:24.159Z,11.83
2022-10-18T17:48:51.645Z,11.82
2022-10-18T17:51:19.299Z,11.79
2022-10-18T17:53:46.810Z,11.79
2022-10-18T17:56:15.309Z,11.78
2022-10-18T17:58:43.728Z,11.81
2022-10-18T18:01:17.693Z,11.85
2022-10-18T18:03:47.691Z,11.89
2022-10-18T18:06:24.001Z,11.95
2022-10-18T18:08:52.463Z,11.97
2022-10-18T18:11:20.287Z,12.02
2022-10-18T18:13:47.940Z,12.09
2022-10-18T18:16:15.462Z,12.12
2022-10-18T18:18:44.151Z,12.16
2022-10-18T18:21:12.288Z,12.16
2022-10-18T18:23:39.994Z,12.19
2022-10-18T18:26:07.817Z,12.24
2022-10-18T18:28:36.446Z,12.22
2022-10-18T18:31:14.823Z,12.23
2022-10-18T18:33:43.130Z,12.20
2022-10-18T18:36:11.452Z,12.21
2022-10-18T18:38:42.798Z,12.23
2022-10-18T18:41:14.148Z,12.25
2022-10-18T18:43:44.387Z,12.24
2022-10-18T18:46:15.222Z,12.25
2022-10-18T18:48:43.005Z,12.24
2022-10-18T18:51:19.471Z,12.25
2022-10-18T18:53:48.301Z,12.27
2022-10-18T18:56:18.750Z,12.27
2022-10-18T18:58:47.092Z,12.26
2022-10-18T19:01:20.205Z,12.30
2022-10-18T19:03:50.947Z,12.32
2022-10-18T19:06:21.481Z,12.33
2022-10-18T19:08:50.006Z,12.31
2022-10-18T19:11:19.965Z,12.32
2022-10-18T19:13:49.158Z,12.32
2022-10-18T19:16:24.531Z,12.30
2022-10-18T19:18:52.864Z,12.29
2022-10-18T19:21:21.631Z,12.29
2022-10-18T19:23:50.321Z,12.26
2022-10-18T19:26:45.462Z,12.27
2022-10-18T19:29:25.947Z,12.26
2022-10-18T19:31:57.065Z,12.23
2022-10-18T19:34:27.543Z,12.20
2022-10-18T19:36:55.881Z,12.21
2022-10-18T19:39:34.268Z,12.19
2022-10-18T19:42:05.120Z,12.19
2022-10-18T19:44:36.011Z,12.19
2022-10-18T19:47:05.582Z,12.15
2022-10-18T19:49:33.096Z,12.17
2022-10-18T19:52:00.623Z,12.19
2022-10-18T19:54:28.454Z,12.15
2022-10-18T19:56:58.400Z,12.14
2022-10-18T19:59:26.049Z,12.14
2022-10-18T20:01:53.652Z,12.12
2022-10-18T20:04:21.200Z,12.13
2022-10-18T20:06:49.717Z,12.12
2022-10-18T20:09:20.418Z,12.11
2022-10-18T20:11:48.537Z,12.11
2022-10-18T20:14:16.108Z,12.10
2022-10-18T20:16:43.641Z,12.10
2022-10-18T20:19:11.753Z,12.09
2022-10-18T20:21:40.083Z,12.09
2022-10-18T20:24:09.372Z,12.09
2022-10-18T20:26:37.152Z,12.08
2022-10-18T20:29:04.855Z,12.06
2022-10-18T20:31:37.198Z,12.05
2022-10-18T20:34:11.762Z,12.03
2022-10-18T20:36:39.929Z,12.04
2022-10-18T20:39:08.004Z,12.05
2022-10-18T20:41:38.921Z,12.03
2022-10-18T20:44:11.477Z,12.02
2022-10-18T20:46:39.405Z,12.03
2022-10-18T20:49:08.280Z,12.02
2022-10-18T20:51:36.449Z,12.02
2022-10-18T20:54:06.430Z,12.03
2022-10-18T20:56:36.524Z,12.03
2022-10-18T20:59:06.267Z,12.00
2022-10-18T21:01:34.470Z,12.00
2022-10-18T21:04:04.634Z,11.98
2022-10-18T21:06:41.152Z,11.98
2022-10-18T21:09:12.376Z,11.96
2022-10-18T21:11:41.938Z,11.95
2022-10-18T21:14:15.068Z,11.94
2022-10-18T21:16:46.084Z,11.94
2022-10-18T21:19:15.276Z,11.93
2022-10-18T21:21:45.017Z,11.90
2022-10-18T21:24:13.952Z,11.86
2022-10-18T21:26:41.503Z,11.83
2022-10-18T21:29:11.594Z,11.81
2022-10-18T21:31:41.412Z,11.80
2022-10-18T21:34:15.832Z,11.79
2022-10-18T21:36:45.361Z,11.79
2022-10-18T21:39:16.060Z,11.80
2022-10-18T21:41:44.521Z,11.80
2022-10-18T21:44:12.960Z,11.80
2022-10-18T21:46:43.014Z,11.75
2022-10-18T21:49:11.406Z,11.73
2022-10-18T21:51:39.258Z,11.71
2022-10-18T21:54:11.363Z,11.73
2022-10-18T21:56:39.154Z,11.76
2022-10-18T21:59:06.640Z,11.78
2022-10-18T22:01:38.555Z,11.77
2022-10-18T22:04:08.143Z,11.67
2022-10-18T22:06:36.833Z,11.54
2022-10-18T22:09:08.445Z,11.42
2022-10-18T22:11:40.263Z,11.32
2022-10-18T22:14:08.107Z,11.23
2022-10-18T22:16:36.100Z,11.15
2022-10-18T22:19:05.629Z,11.09
2022-10-18T22:21:33.791Z,11.01
2022-10-18T22:24:06.084Z,10.97
2022-10-18T22:26:39.250Z,10.95
2022-10-18T22:29:17.124Z,10.94
2022-10-18T22:31:47.742Z,10.97
2022-10-18T22:34:20.948Z,11.03
2022-10-18T22:36:48.857Z,11.05
2022-10-18T22:39:17.221Z,11.08
2022-10-18T22:41:45.396Z,11.09
2022-10-18T22:44:14.409Z,11.05
2022-10-18T22:46:42.536Z,11.03
2022-10-18T22:49:11.680Z,11.02
2022-10-18T22:51:40.069Z,10.99
2022-10-18T22:54:08.269Z,11.04
2022-10-18T22:56:35.862Z,11.04
2022-10-18T22:59:03.428Z,11.04
2022-10-18T23:01:30.948Z,11.04
2022-10-18T23:03:59.983Z,11.03
2022-10-18T23:06:30.129Z,11.02
2022-10-18T23:08:59.344Z,10.96
2022-10-18T23:11:28.081Z,10.91
2022-10-18T23:13:55.614Z,10.79
2022-10-18T23:16:23.661Z,10.68
2022-10-18T23:18:52.560Z,10.53
2022-10-18T23:21:20.981Z,10.41
2022-10-18T23:23:48.452Z,10.33
2022-10-18T23:26:19.673Z,10.26
2022-10-18T23:28:48.644Z,10.17
2022-10-18T23:31:31.010Z,10.09
2022-10-18T23:34:01.224Z,10.02
2022-10-18T23:36:29.448Z,9.96
2022-10-18T23:38:57.172Z,9.89
2022-10-18T23:41:25.343Z,9.84
2022-10-18T23:43:53.119Z,9.80
2022-10-18T23:46:20.862Z,9.75
2022-10-18T23:48:48.942Z,9.71
2022-10-18T23:51:17.247Z,9.66
2022-10-18T23:53:45.072Z,9.63
2022-10-18T23:56:15.707Z,9.59
2022-10-18T23:58:44.545Z,9.57
